Un Akdeniz — TCTD2 — position and weather

sailwx.info

Track history (hours):
 
Tides and Currents Weather Stations Pressure Air Temp Water Temp Dewpoint Dewpoint Depression Visibility Wind Speed Wind Dir Waves Ship Positions

Un Akdeniz

Last reported at 2017-Aug-15 04:12 UTC. Time now 2017-Aug-16 21:49 UTC.
Position N 37°19' E 018°14'.

Length 222 m; draft 6.4 m.

Type: Ship (hazmat cat A). MMSI: 271002572.

Date/timePositionNaut miles runAvg speedWind from/ knotsBaromVisibWave heightAir tempDewpointWater temp
2017-Aug-15 04:12N 37°19' E 018°14'10719.7
2017-Aug-14 22:46N 37°49' E 016°04'518.7
2017-Aug-14 22:28N 37°50' E 015°58'918.4
2017-Aug-14 21:59N 37°53' E 015°47'817.8
2017-Aug-14 21:30N 37°57' E 015°37'918.8
2017-Aug-14 21:00N 38°06' E 015°35'918.8
2017-Aug-14 20:31N 38°15' E 015°38'714.9
2017-Aug-14 20:00N 38°22' E 015°35'1020.0
2017-Aug-14 19:30N 38°29' E 015°26'1019.9
2017-Aug-14 19:00N 38°36' E 015°17'1019.4
2017-Aug-14 18:30N 38°43' E 015°08'1019.5
2017-Aug-14 17:58N 38°48' E 014°56'919.8
2017-Aug-14 17:30N 38°52' E 014°46'1019.9
2017-Aug-14 17:01N 38°58' E 014°35'22019.7
2017-Aug-14 05:50N 40°52' E 010°30'619.5
2017-Aug-14 05:30N 40°55' E 010°22'1219.7
2017-Aug-14 04:54N 41°01' E 010°09'820.3
2017-Aug-14 04:30N 41°05' E 009°60'2720.3
2017-Aug-14 03:09N 41°20' E 009°29'519.2
2017-Aug-14 02:54N 41°21' E 009°23'718.4
2017-Aug-14 02:30N 41°17' E 009°15'4218.7
2017-Aug-14 00:15N 41°35' E 008°24'1319.2
2017-Aug-13 23:35N 41°43' E 008°11'919.3
2017-Aug-13 23:07N 41°49' E 008°01'219.2
2017-Aug-13 23:00N 41°50' E 007°59'1319.2
2017-Aug-13 22:19N 41°59' E 007°46'819.4
2017-Aug-13 21:54N 42°05' E 007°38'819.5
2017-Aug-13 21:30N 42°09' E 007°29'1019.7
2017-Aug-13 21:00N 42°15' E 007°19'1019.8
2017-Aug-13 20:30N 42°21' E 007°08'1019.8
2017-Aug-13 20:00N 42°27' E 006°58'1019.6
2017-Aug-13 19:30N 42°34' E 006°48'1019.8
2017-Aug-13 18:59N 42°41' E 006°37'919.7
2017-Aug-13 18:30N 42°46' E 006°27'1119.4
2017-Aug-13 17:58N 42°53' E 006°16'1319.4
2017-Aug-13 17:17N 43°01' E 006°02'516.1
2017-Aug-13 17:00N 43°05' E 005°58'4 6.7
2017-Aug-13 16:28N 43°06' E 005°54'0 0.0
2017-Aug-13 15:58N 43°06' E 005°54'0 0.0
2017-Aug-13 15:28N 43°06' E 005°54'0 0.0
2017-Aug-13 14:58N 43°06' E 005°54'0 0.0
2017-Aug-13 14:31N 43°06' E 005°54'0 0.0
2017-Aug-13 14:00N 43°06' E 005°54'0 0.0
2017-Aug-13 13:30N 43°06' E 005°54'0 0.0
2017-Aug-13 13:00N 43°06' E 005°54'0 0.0
2017-Aug-13 12:30N 43°06' E 005°54'0 0.0
2017-Aug-13 11:59N 43°06' E 005°54'0 0.0
2017-Aug-13 11:29N 43°06' E 005°54'0 0.0
2017-Aug-13 10:59N 43°06' E 005°54'0 0.0
2017-Aug-13 10:29N 43°06' E 005°54'0 0.0
2017-Aug-13 09:59N 43°06' E 005°54'0 0.0
2017-Aug-13 09:28N 43°06' E 005°54'0 0.0
2017-Aug-13 08:58N 43°06' E 005°54'0 0.0
2017-Aug-13 08:28N 43°06' E 005°54'0 0.0
2017-Aug-13 07:58N 43°06' E 005°54'0 0.0
2017-Aug-13 07:28N 43°06' E 005°54'0 0.0
2017-Aug-13 07:00N 43°06' E 005°54'0 0.0
2017-Aug-13 06:30N 43°06' E 005°54'0 0.0
2017-Aug-13 06:00N 43°06' E 005°54'0 0.5
2017-Aug-13 05:30N 43°06' E 005°54'3 6.3
2017-Aug-13 05:00N 43°05' E 005°58'1112.6
2017-Aug-13 04:07N 42°58' E 006°09'316.7
2017-Aug-13 03:57N 42°56' E 006°12'818.4
2017-Aug-13 03:31N 42°51' E 006°21'1119.9
2017-Aug-13 02:58N 42°44' E 006°32'919.7
2017-Aug-13 02:30N 42°38' E 006°42'1019.8
2017-Aug-13 02:01N 42°32' E 006°52'1019.9
2017-Aug-13 01:31N 42°26' E 007°03'1120.0
2017-Aug-13 00:59N 42°19' E 007°14'919.9
2017-Aug-13 00:31N 42°13' E 007°24'1019.9
2017-Aug-13 00:01N 42°07' E 007°34'37918.3
2017-Aug-12 03:22N 38°54' E 014°43'820.0
2017-Aug-12 02:57N 38°50' E 014°52'919.9
2017-Aug-12 02:30N 38°45' E 015°01'1019.9
2017-Aug-12 02:00N 38°40' E 015°12'1019.8
2017-Aug-12 01:30N 38°33' E 015°22'1019.8
2017-Aug-12 01:00N 38°26' E 015°31'919.3
2017-Aug-12 00:30N 38°20' E 015°40'714.3
2017-Aug-12 00:00N 38°14' E 015°37'917.7
2017-Aug-11 23:30N 38°05' E 015°36'918.6
2017-Aug-11 23:00N 37°56' E 015°40'1120.4
2017-Aug-11 22:28N 37°52' E 015°53'10019.9
2017-Aug-11 17:27N 37°24' E 017°55'919.8
2017-Aug-11 17:00N 37°22' E 018°05'1019.8
2017-Aug-11 16:30N 37°19' E 018°17'1020.0
2017-Aug-11 16:00N 37°16' E 018°29'3420.0
2017-Aug-11 14:19N 37°07' E 019°10'2419.8
2017-Aug-11 13:07N 37°01' E 019°39'1319.7
2017-Aug-11 12:28N 36°57' E 019°54'919.8
2017-Aug-11 12:01N 36°55' E 020°05'1220.1
2017-Aug-11 11:24N 36°51' E 020°20'717.4
2017-Aug-11 11:01N 36°49' E 020°28'9 7.3
2017-Aug-11 09:45N 36°47' E 020°39'1420.0
2017-Aug-11 09:04N 36°43' E 020°55'220.1
2017-Aug-11 08:58N 36°43' E 020°58'  
2017-Aug-08 13:01N 36°57' E 019°53'021.0
2017-Aug-08 13:00N 36°57' E 019°52'1020.0
2017-Aug-08 12:30N 37°00' E 019°40'1020.2
2017-Aug-08 12:00N 37°03' E 019°28'1020.1
2017-Aug-08 11:30N 37°06' E 019°16'3219.9
2017-Aug-08 09:53N 37°15' E 018°37'819.9
2017-Aug-08 09:30N 37°17' E 018°28'1020.1
2017-Aug-08 09:00N 37°20' E 018°16'1020.1
2017-Aug-08 08:30N 37°23' E 018°04'1020.2
2017-Aug-08 08:00N 37°26' E 017°52'1020.1
2017-Aug-08 07:30N 37°28' E 017°40'1019.8
2017-Aug-08 07:00N 37°31' E 017°28'1019.7
2017-Aug-08 06:30N 37°33' E 017°16'5920.4
2017-Aug-08 03:38N 37°49' E 016°04'819.7
2017-Aug-08 03:13N 37°51' E 015°54'619.3
2017-Aug-08 02:56N 37°53' E 015°47'818.9
2017-Aug-08 02:30N 37°56' E 015°38'917.9
2017-Aug-08 02:00N 38°04' E 015°34'1019.5
2017-Aug-08 01:30N 38°14' E 015°36'714.4
2017-Aug-08 01:00N 38°21' E 015°39'918.4
2017-Aug-08 00:30N 38°29' E 015°33'1120.1
2017-Aug-07 23:58N 38°38' E 015°27'920.1
2017-Aug-07 23:30N 38°46' E 015°21'1019.9
2017-Aug-07 23:00N 38°54' E 015°12'1020.0
2017-Aug-07 22:29N 39°01' E 015°03'1819.7
2017-Aug-07 21:33N 39°13' E 014°45'119.6
2017-Aug-07 21:30N 39°13' E 014°44'1319.9
2017-Aug-07 20:52N 39°22' E 014°31'4120.1
2017-Aug-07 18:49N 39°49' E 013°50'720.4
2017-Aug-07 18:29N 39°53' E 013°44'1420.4
2017-Aug-07 17:49N 40°02' E 013°30'620.6
2017-Aug-07 17:30N 40°06' E 013°24'1220.6
2017-Aug-07 16:56N 40°14' E 013°12'1820.6
2017-Aug-07 16:03N 40°27' E 012°56'120.7
2017-Aug-07 16:00N 40°27' E 012°55'1020.5
2017-Aug-07 15:30N 40°33' E 012°44'1220.6
2017-Aug-07 14:55N 40°41' E 012°31'4020.7
2017-Aug-07 12:59N 41°07' E 011°51'1020.6
2017-Aug-07 12:30N 41°13' E 011°41'1820.6
2017-Aug-07 11:39N 41°25' E 011°23'920.6
2017-Aug-07 11:13N 41°30' E 011°14'520.8
2017-Aug-07 11:00N 41°33' E 011°10'2020.4
2017-Aug-07 10:02N 41°46' E 010°50'320.0
2017-Aug-07 09:54N 41°48' E 010°47'819.7
2017-Aug-07 09:29N 41°54' E 010°39'919.6
2017-Aug-07 09:00N 41°60' E 010°29'1319.7
2017-Aug-07 08:20N 42°08' E 010°16'619.8
2017-Aug-07 08:00N 42°12' E 010°09'1119.8
2017-Aug-07 07:27N 42°20' E 009°58'1020.2
2017-Aug-07 06:57N 42°29' E 009°53'1020.3
2017-Aug-07 06:27N 42°38' E 009°47'1020.1
2017-Aug-07 05:59N 42°47' E 009°42'919.9
2017-Aug-07 05:30N 42°56' E 009°37'1219.8
2017-Aug-07 04:53N 43°08' E 009°32'718.9
2017-Aug-07 04:30N 43°10' E 009°23'1119.9
2017-Aug-07 03:56N 43°08' E 009°07'920.0
2017-Aug-07 03:29N 43°06' E 008°55'1020.4
2017-Aug-07 03:00N 43°05' E 008°42'1020.6
2017-Aug-07 02:30N 43°04' E 008°28'1020.2
2017-Aug-07 02:00N 43°02' E 008°14'1020.0
2017-Aug-07 01:30N 43°01' E 008°01'1019.8
2017-Aug-07 01:00N 42°59' E 007°48'1019.7
2017-Aug-07 00:30N 42°58' E 007°34'1019.8
2017-Aug-07 00:00N 42°58' E 007°21'1019.9
2017-Aug-06 23:31N 42°57' E 007°07'1019.6
2017-Aug-06 23:00N 42°56' E 006°54'1019.4
2017-Aug-06 22:30N 42°55' E 006°41'1219.4
2017-Aug-06 21:54N 42°53' E 006°25'2218.5
2017-Aug-06 20:42N 43°04' E 005°58'2 9.9
2017-Aug-06 20:30N 43°05' E 005°56'2 4.5
2017-Aug-06 20:00N 43°06' E 005°54'0 0.0
2017-Aug-06 19:28N 43°06' E 005°54'0 0.0
2017-Aug-06 19:00N 43°06' E 005°54'0 0.0
2017-Aug-06 18:30N 43°06' E 005°54'0 0.0
2017-Aug-06 18:00N 43°06' E 005°54'0 0.0
2017-Aug-06 17:30N 43°06' E 005°54'0 0.0
2017-Aug-06 16:59N 43°06' E 005°54'0 0.0
2017-Aug-06 16:30N 43°06' E 005°54'0 0.0
2017-Aug-06 15:59N 43°06' E 005°54'0 0.0
2017-Aug-06 15:29N 43°06' E 005°54'0 0.0
2017-Aug-06 14:59N 43°06' E 005°54'0 0.0
2017-Aug-06 14:28N 43°06' E 005°54'0 0.0
2017-Aug-06 13:58N 43°06' E 005°54'0 0.0
2017-Aug-06 13:28N 43°06' E 005°54'0 0.0
2017-Aug-06 12:58N 43°06' E 005°54'0 0.0
2017-Aug-06 12:27N 43°06' E 005°54'0 0.0
2017-Aug-06 11:58N 43°06' E 005°54'0 0.0
2017-Aug-06 11:30N 43°06' E 005°54'0 0.0
2017-Aug-06 11:00N 43°06' E 005°54'0 0.0
2017-Aug-06 10:30N 43°06' E 005°54'0 0.0
2017-Aug-06 10:00N 43°06' E 005°54'0 0.0
2017-Aug-06 09:29N 43°06' E 005°54'0 0.0
2017-Aug-06 08:59N 43°06' E 005°54'0 0.0
2017-Aug-06 08:30N 43°06' E 005°54'0 0.0
2017-Aug-06 08:01N 43°06' E 005°54'1 1.9
2017-Aug-06 07:30N 43°06' E 005°55'0 0.9
2017-Aug-06 07:00N 43°06' E 005°54'2 4.3
2017-Aug-06 06:31N 43°05' E 005°57'815.2
2017-Aug-06 06:00N 43°00' E 006°05'918.9
2017-Aug-06 05:31N 42°55' E 006°15'1020.0
2017-Aug-06 05:01N 42°48' E 006°26'1019.8
2017-Aug-06 04:31N 42°42' E 006°36'1020.1
2017-Aug-06 04:01N 42°36' E 006°46'1120.3
2017-Aug-06 03:29N 42°29' E 006°58'1020.3
2017-Aug-06 03:00N 42°23' E 007°08'1120.1
2017-Aug-06 02:26N 42°16' E 007°20'920.0
2017-Aug-06 01:58N 42°10' E 007°30'920.0
2017-Aug-06 01:31N 42°04' E 007°39'1019.9
2017-Aug-06 01:00N 41°57' E 007°50'7818.6
2017-Aug-05 20:50N 41°22' E 009°22'618.5
2017-Aug-05 20:30N 41°19' E 009°30'1019.4
2017-Aug-05 20:00N 41°14' E 009°41'1119.5
2017-Aug-05 19:26N 41°08' E 009°53'919.7
2017-Aug-05 18:59N 41°04' E 010°03'1020.1
2017-Aug-05 18:30N 40°59' E 010°14'1320.5
2017-Aug-05 17:53N 40°52' E 010°28'5720.3
2017-Aug-05 15:06N 40°23' E 011°32'320.4
2017-Aug-05 14:59N 40°22' E 011°35'7020.4
2017-Aug-05 11:34N 39°46' E 012°53'120.7
2017-Aug-05 11:30N 39°45' E 012°54'1220.5
2017-Aug-05 10:56N 39°39' E 013°07'920.2
2017-Aug-05 10:31N 39°34' E 013°17'1020.0
2017-Aug-05 10:01N 39°29' E 013°28'1020.2
2017-Aug-05 09:31N 39°24' E 013°39'1020.3
2017-Aug-05 09:01N 39°19' E 013°51'1320.2
2017-Aug-05 08:23N 39°12' E 014°05'820.4
2017-Aug-05 07:59N 39°08' E 014°13'1020.5
2017-Aug-05 07:30N 39°03' E 014°24'1020.8
2017-Aug-05 07:01N 38°58' E 014°36'1121.1
2017-Aug-05 06:30N 38°52' E 014°47'1121.0
2017-Aug-05 05:58N 38°46' E 014°60'1020.5
2017-Aug-05 05:28N 38°40' E 015°11'920.4
2017-Aug-05 05:00N 38°34' E 015°20'1020.6
2017-Aug-05 04:30N 38°27' E 015°29'  
Track history (hours):
 
Tides and Currents Weather Stations Pressure Air Temp Water Temp Dewpoint Dewpoint Depression Visibility Wind Speed Wind Dir Waves Ship Positions

Un Akdeniz

Last reported at 2017-Aug-15 04:12 UTC. Time now 2017-Aug-16 21:49 UTC.
Position N 37°19' E 018°14'.

Length 222 m; draft 6.4 m.

Type: Ship (hazmat cat A). MMSI: 271002572.

Date/timePositionNaut miles runAvg speedWind from/ knotsBaromVisibWave heightAir tempDewpointWater temp
2017-Aug-15 04:12N 37°19' E 018°14'10719.7
2017-Aug-14 22:46N 37°49' E 016°04'518.7
2017-Aug-14 22:28N 37°50' E 015°58'918.4
2017-Aug-14 21:59N 37°53' E 015°47'817.8
2017-Aug-14 21:30N 37°57' E 015°37'918.8
2017-Aug-14 21:00N 38°06' E 015°35'918.8
2017-Aug-14 20:31N 38°15' E 015°38'714.9
2017-Aug-14 20:00N 38°22' E 015°35'1020.0
2017-Aug-14 19:30N 38°29' E 015°26'1019.9
2017-Aug-14 19:00N 38°36' E 015°17'1019.4
2017-Aug-14 18:30N 38°43' E 015°08'1019.5
2017-Aug-14 17:58N 38°48' E 014°56'919.8
2017-Aug-14 17:30N 38°52' E 014°46'1019.9
2017-Aug-14 17:01N 38°58' E 014°35'22019.7
2017-Aug-14 05:50N 40°52' E 010°30'619.5
2017-Aug-14 05:30N 40°55' E 010°22'1219.7
2017-Aug-14 04:54N 41°01' E 010°09'820.3
2017-Aug-14 04:30N 41°05' E 009°60'2720.3
2017-Aug-14 03:09N 41°20' E 009°29'519.2
2017-Aug-14 02:54N 41°21' E 009°23'718.4
2017-Aug-14 02:30N 41°17' E 009°15'4218.7
2017-Aug-14 00:15N 41°35' E 008°24'1319.2
2017-Aug-13 23:35N 41°43' E 008°11'919.3
2017-Aug-13 23:07N 41°49' E 008°01'219.2
2017-Aug-13 23:00N 41°50' E 007°59'1319.2
2017-Aug-13 22:19N 41°59' E 007°46'819.4
2017-Aug-13 21:54N 42°05' E 007°38'819.5
2017-Aug-13 21:30N 42°09' E 007°29'1019.7
2017-Aug-13 21:00N 42°15' E 007°19'1019.8
2017-Aug-13 20:30N 42°21' E 007°08'1019.8
2017-Aug-13 20:00N 42°27' E 006°58'1019.6
2017-Aug-13 19:30N 42°34' E 006°48'1019.8
2017-Aug-13 18:59N 42°41' E 006°37'919.7
2017-Aug-13 18:30N 42°46' E 006°27'1119.4
2017-Aug-13 17:58N 42°53' E 006°16'1319.4
2017-Aug-13 17:17N 43°01' E 006°02'516.1
2017-Aug-13 17:00N 43°05' E 005°58'4 6.7
2017-Aug-13 16:28N 43°06' E 005°54'0 0.0
2017-Aug-13 15:58N 43°06' E 005°54'0 0.0
2017-Aug-13 15:28N 43°06' E 005°54'0 0.0
2017-Aug-13 14:58N 43°06' E 005°54'0 0.0
2017-Aug-13 14:31N 43°06' E 005°54'0 0.0
2017-Aug-13 14:00N 43°06' E 005°54'0 0.0
2017-Aug-13 13:30N 43°06' E 005°54'0 0.0
2017-Aug-13 13:00N 43°06' E 005°54'0 0.0
2017-Aug-13 12:30N 43°06' E 005°54'0 0.0
2017-Aug-13 11:59N 43°06' E 005°54'0 0.0
2017-Aug-13 11:29N 43°06' E 005°54'0 0.0
2017-Aug-13 10:59N 43°06' E 005°54'0 0.0
2017-Aug-13 10:29N 43°06' E 005°54'0 0.0
2017-Aug-13 09:59N 43°06' E 005°54'0 0.0
2017-Aug-13 09:28N 43°06' E 005°54'0 0.0
2017-Aug-13 08:58N 43°06' E 005°54'0 0.0
2017-Aug-13 08:28N 43°06' E 005°54'0 0.0
2017-Aug-13 07:58N 43°06' E 005°54'0 0.0
2017-Aug-13 07:28N 43°06' E 005°54'0 0.0
2017-Aug-13 07:00N 43°06' E 005°54'0 0.0
2017-Aug-13 06:30N 43°06' E 005°54'0 0.0
2017-Aug-13 06:00N 43°06' E 005°54'0 0.5
2017-Aug-13 05:30N 43°06' E 005°54'3 6.3
2017-Aug-13 05:00N 43°05' E 005°58'1112.6
2017-Aug-13 04:07N 42°58' E 006°09'316.7
2017-Aug-13 03:57N 42°56' E 006°12'818.4
2017-Aug-13 03:31N 42°51' E 006°21'1119.9
2017-Aug-13 02:58N 42°44' E 006°32'919.7
2017-Aug-13 02:30N 42°38' E 006°42'1019.8
2017-Aug-13 02:01N 42°32' E 006°52'1019.9
2017-Aug-13 01:31N 42°26' E 007°03'1120.0
2017-Aug-13 00:59N 42°19' E 007°14'919.9
2017-Aug-13 00:31N 42°13' E 007°24'1019.9
2017-Aug-13 00:01N 42°07' E 007°34'37918.3
2017-Aug-12 03:22N 38°54' E 014°43'820.0
2017-Aug-12 02:57N 38°50' E 014°52'919.9
2017-Aug-12 02:30N 38°45' E 015°01'1019.9
2017-Aug-12 02:00N 38°40' E 015°12'1019.8
2017-Aug-12 01:30N 38°33' E 015°22'1019.8
2017-Aug-12 01:00N 38°26' E 015°31'919.3
2017-Aug-12 00:30N 38°20' E 015°40'714.3
2017-Aug-12 00:00N 38°14' E 015°37'917.7
2017-Aug-11 23:30N 38°05' E 015°36'918.6
2017-Aug-11 23:00N 37°56' E 015°40'1120.4
2017-Aug-11 22:28N 37°52' E 015°53'10019.9
2017-Aug-11 17:27N 37°24' E 017°55'919.8
2017-Aug-11 17:00N 37°22' E 018°05'1019.8
2017-Aug-11 16:30N 37°19' E 018°17'1020.0
2017-Aug-11 16:00N 37°16' E 018°29'3420.0
2017-Aug-11 14:19N 37°07' E 019°10'2419.8
2017-Aug-11 13:07N 37°01' E 019°39'1319.7
2017-Aug-11 12:28N 36°57' E 019°54'919.8
2017-Aug-11 12:01N 36°55' E 020°05'1220.1
2017-Aug-11 11:24N 36°51' E 020°20'717.4
2017-Aug-11 11:01N 36°49' E 020°28'9 7.3
2017-Aug-11 09:45N 36°47' E 020°39'1420.0
2017-Aug-11 09:04N 36°43' E 020°55'220.1
2017-Aug-11 08:58N 36°43' E 020°58'  
2017-Aug-08 13:01N 36°57' E 019°53'021.0
2017-Aug-08 13:00N 36°57' E 019°52'1020.0
2017-Aug-08 12:30N 37°00' E 019°40'1020.2
2017-Aug-08 12:00N 37°03' E 019°28'1020.1
2017-Aug-08 11:30N 37°06' E 019°16'3219.9
2017-Aug-08 09:53N 37°15' E 018°37'819.9
2017-Aug-08 09:30N 37°17' E 018°28'1020.1
2017-Aug-08 09:00N 37°20' E 018°16'1020.1
2017-Aug-08 08:30N 37°23' E 018°04'1020.2
2017-Aug-08 08:00N 37°26' E 017°52'1020.1
2017-Aug-08 07:30N 37°28' E 017°40'1019.8
2017-Aug-08 07:00N 37°31' E 017°28'1019.7
2017-Aug-08 06:30N 37°33' E 017°16'5920.4
2017-Aug-08 03:38N 37°49' E 016°04'819.7
2017-Aug-08 03:13N 37°51' E 015°54'619.3
2017-Aug-08 02:56N 37°53' E 015°47'818.9
2017-Aug-08 02:30N 37°56' E 015°38'917.9
2017-Aug-08 02:00N 38°04' E 015°34'1019.5
2017-Aug-08 01:30N 38°14' E 015°36'714.4
2017-Aug-08 01:00N 38°21' E 015°39'918.4
2017-Aug-08 00:30N 38°29' E 015°33'1120.1
2017-Aug-07 23:58N 38°38' E 015°27'920.1
2017-Aug-07 23:30N 38°46' E 015°21'1019.9
2017-Aug-07 23:00N 38°54' E 015°12'1020.0
2017-Aug-07 22:29N 39°01' E 015°03'1819.7
2017-Aug-07 21:33N 39°13' E 014°45'119.6
2017-Aug-07 21:30N 39°13' E 014°44'1319.9
2017-Aug-07 20:52N 39°22' E 014°31'4120.1
2017-Aug-07 18:49N 39°49' E 013°50'720.4
2017-Aug-07 18:29N 39°53' E 013°44'1420.4
2017-Aug-07 17:49N 40°02' E 013°30'620.6
2017-Aug-07 17:30N 40°06' E 013°24'1220.6
2017-Aug-07 16:56N 40°14' E 013°12'1820.6
2017-Aug-07 16:03N 40°27' E 012°56'120.7
2017-Aug-07 16:00N 40°27' E 012°55'1020.5
2017-Aug-07 15:30N 40°33' E 012°44'1220.6
2017-Aug-07 14:55N 40°41' E 012°31'4020.7
2017-Aug-07 12:59N 41°07' E 011°51'1020.6
2017-Aug-07 12:30N 41°13' E 011°41'1820.6
2017-Aug-07 11:39N 41°25' E 011°23'920.6
2017-Aug-07 11:13N 41°30' E 011°14'520.8
2017-Aug-07 11:00N 41°33' E 011°10'2020.4
2017-Aug-07 10:02N 41°46' E 010°50'320.0
2017-Aug-07 09:54N 41°48' E 010°47'819.7
2017-Aug-07 09:29N 41°54' E 010°39'919.6
2017-Aug-07 09:00N 41°60' E 010°29'1319.7
2017-Aug-07 08:20N 42°08' E 010°16'619.8
2017-Aug-07 08:00N 42°12' E 010°09'1119.8
2017-Aug-07 07:27N 42°20' E 009°58'1020.2
2017-Aug-07 06:57N 42°29' E 009°53'1020.3
2017-Aug-07 06:27N 42°38' E 009°47'1020.1
2017-Aug-07 05:59N 42°47' E 009°42'919.9
2017-Aug-07 05:30N 42°56' E 009°37'1219.8
2017-Aug-07 04:53N 43°08' E 009°32'718.9
2017-Aug-07 04:30N 43°10' E 009°23'1119.9
2017-Aug-07 03:56N 43°08' E 009°07'920.0
2017-Aug-07 03:29N 43°06' E 008°55'1020.4
2017-Aug-07 03:00N 43°05' E 008°42'1020.6
2017-Aug-07 02:30N 43°04' E 008°28'1020.2
2017-Aug-07 02:00N 43°02' E 008°14'1020.0
2017-Aug-07 01:30N 43°01' E 008°01'1019.8
2017-Aug-07 01:00N 42°59' E 007°48'1019.7
2017-Aug-07 00:30N 42°58' E 007°34'1019.8
2017-Aug-07 00:00N 42°58' E 007°21'1019.9
2017-Aug-06 23:31N 42°57' E 007°07'1019.6
2017-Aug-06 23:00N 42°56' E 006°54'1019.4
2017-Aug-06 22:30N 42°55' E 006°41'1219.4
2017-Aug-06 21:54N 42°53' E 006°25'2218.5
2017-Aug-06 20:42N 43°04' E 005°58'2 9.9
2017-Aug-06 20:30N 43°05' E 005°56'2 4.5
2017-Aug-06 20:00N 43°06' E 005°54'0 0.0
2017-Aug-06 19:28N 43°06' E 005°54'0 0.0
2017-Aug-06 19:00N 43°06' E 005°54'0 0.0
2017-Aug-06 18:30N 43°06' E 005°54'0 0.0
2017-Aug-06 18:00N 43°06' E 005°54'0 0.0
2017-Aug-06 17:30N 43°06' E 005°54'0 0.0
2017-Aug-06 16:59N 43°06' E 005°54'0 0.0
2017-Aug-06 16:30N 43°06' E 005°54'0 0.0
2017-Aug-06 15:59N 43°06' E 005°54'0 0.0
2017-Aug-06 15:29N 43°06' E 005°54'0 0.0
2017-Aug-06 14:59N 43°06' E 005°54'0 0.0
2017-Aug-06 14:28N 43°06' E 005°54'0 0.0
2017-Aug-06 13:58N 43°06' E 005°54'0 0.0
2017-Aug-06 13:28N 43°06' E 005°54'0 0.0
2017-Aug-06 12:58N 43°06' E 005°54'0 0.0
2017-Aug-06 12:27N 43°06' E 005°54'0 0.0
2017-Aug-06 11:58N 43°06' E 005°54'0 0.0
2017-Aug-06 11:30N 43°06' E 005°54'0 0.0
2017-Aug-06 11:00N 43°06' E 005°54'0 0.0
2017-Aug-06 10:30N 43°06' E 005°54'0 0.0
2017-Aug-06 10:00N 43°06' E 005°54'0 0.0
2017-Aug-06 09:29N 43°06' E 005°54'0 0.0
2017-Aug-06 08:59N 43°06' E 005°54'0 0.0
2017-Aug-06 08:30N 43°06' E 005°54'0 0.0
2017-Aug-06 08:01N 43°06' E 005°54'1 1.9
2017-Aug-06 07:30N 43°06' E 005°55'0 0.9
2017-Aug-06 07:00N 43°06' E 005°54'2 4.3
2017-Aug-06 06:31N 43°05' E 005°57'815.2
2017-Aug-06 06:00N 43°00' E 006°05'918.9
2017-Aug-06 05:31N 42°55' E 006°15'1020.0
2017-Aug-06 05:01N 42°48' E 006°26'1019.8
2017-Aug-06 04:31N 42°42' E 006°36'1020.1
2017-Aug-06 04:01N 42°36' E 006°46'1120.3
2017-Aug-06 03:29N 42°29' E 006°58'1020.3
2017-Aug-06 03:00N 42°23' E 007°08'1120.1
2017-Aug-06 02:26N 42°16' E 007°20'920.0
2017-Aug-06 01:58N 42°10' E 007°30'920.0
2017-Aug-06 01:31N 42°04' E 007°39'1019.9
2017-Aug-06 01:00N 41°57' E 007°50'7818.6
2017-Aug-05 20:50N 41°22' E 009°22'618.5
2017-Aug-05 20:30N 41°19' E 009°30'1019.4
2017-Aug-05 20:00N 41°14' E 009°41'1119.5
2017-Aug-05 19:26N 41°08' E 009°53'919.7
2017-Aug-05 18:59N 41°04' E 010°03'1020.1
2017-Aug-05 18:30N 40°59' E 010°14'1320.5
2017-Aug-05 17:53N 40°52' E 010°28'5720.3
2017-Aug-05 15:06N 40°23' E 011°32'320.4
2017-Aug-05 14:59N 40°22' E 011°35'7020.4
2017-Aug-05 11:34N 39°46' E 012°53'120.7
2017-Aug-05 11:30N 39°45' E 012°54'1220.5
2017-Aug-05 10:56N 39°39' E 013°07'920.2
2017-Aug-05 10:31N 39°34' E 013°17'1020.0
2017-Aug-05 10:01N 39°29' E 013°28'1020.2
2017-Aug-05 09:31N 39°24' E 013°39'1020.3
2017-Aug-05 09:01N 39°19' E 013°51'1320.2
2017-Aug-05 08:23N 39°12' E 014°05'820.4
2017-Aug-05 07:59N 39°08' E 014°13'1020.5
2017-Aug-05 07:30N 39°03' E 014°24'1020.8
2017-Aug-05 07:01N 38°58' E 014°36'1121.1
2017-Aug-05 06:30N 38°52' E 014°47'1121.0
2017-Aug-05 05:58N 38°46' E 014°60'1020.5
2017-Aug-05 05:28N 38°40' E 015°11'920.4
2017-Aug-05 05:00N 38°34' E 015°20'1020.6
2017-Aug-05 04:30N 38°27' E 015°29'  

Dump ship's entire track history